Startpagina
METAR-TAF:

METAR-TAF

Vliegvelden :

Chinandega, Nicaragua

breedte: 12-38N, lengte: 087-08W, hoogte: 53 m

Actueel weer

Dit bericht is 42 minuten geleden gemaakt, om 18:00 UTC
Wind 4 kt uit het noorden
Temperatuur 33°C
Vochtigheid 53%
Druk 1010 hPa
Zicht 10 km of meer
Verspreide wolken op 2500 ft, Stapelwolken.
Verspreide wolken op 30000 ft

METAR: MNCH 171800Z 36004KT 9999 SCT025TCU SCT300 33/22 Q1010 TCU NE E SW

Tijdstip: 12:42 (18:42 UTC)


TAF: ontbreekt

Waarnemingen en weersverwachtingen van meer dan 4000 vliegvelden (METAR en TAF).

De beschikbare stations zijn de gele en rode punten op de kaart.

Ga met uw muis naar het station om de naam te zien.

Klik dan om waarnemingen en weersverwachtingen te zien.

kaart wijzigen: klik op de groene knoppen met een zwart kruis om in te zoomen, op de groene knop met een streepje om uit te zoomen of op de groene pijlen voor aangrenzende kaarten.


METAR-TAF: